Thursday, November 23, 2017, 7:17 AM GMT
Back to Local

CWGR, Iles-De-La-Madelein

Location: , , Canada Lat: 47.417
Local Time: 7:17 AM GMT ( 7:17 GMT) Lon: -61.8
Time Zone: GMT Elev: 32 ft

Show me the last for .
Show Coded

Time T Td Feel RH Dir Speed Gust Alt SLP Vis Weather Sky Remarks
2017-11-23 07:00 49 48 42 94 130° 17 24 - 29.42 0 Peak wind: 24 mph (21 kts) from 130° at 54 min
Pressure falling rapidly
1-hr Precip Total: 0.07"
2017-11-23 06:00 49 48 43 94 130° 14 21 - 29.50 0 Peak wind: 28 mph (25 kts) from 130° at 03 min
Pressure falling rapidly
1-hr Precip Total: 0.02"
2017-11-23 05:00 50 48 - 92 140° 20 29 - 29.57 0 Peak wind: 35 mph (31 kts) from 160° at 34 min
Pressure falling rapidly
1-hr Precip Total: 0.06"
2017-11-23 04:00 52 50 - 92 160° 18 26 - 29.64 0 Peak wind: 35 mph (31 kts) from 170° at 17 min
1-hr Precip Total: 0.08"
2017-11-23 03:00 50 48 42 92 140° 18 25 - 29.68 0 Peak wind: 25 mph (22 kts) from 150° at 52 min
1-hr Precip Total: 0.03"
2017-11-23 02:00 46 44 41 91 120° 13 - - 29.74 0 Pressure falling rapidly
2017-11-23 01:00 44 43 37 95 110° 13 - - 29.81 0 None
2017-11-23 00:00 45 43 40 92 100° 10 - - 29.84 0 None
2017-11-22 23:00 49 43 44 79 170° 12 - - 29.90 0 None
2017-11-22 22:00 47 44 41 89 170° 12 - - 29.92 0 None
2017-11-22 21:00 46 42 42 85 180° 8 - - 29.96 0 None
2017-11-22 20:00 46 44 42 91 190° 8 - - 29.98 0 None
2017-11-22 19:00 46 44 42 94 190° 7 - - 29.99 0 None
2017-11-22 18:00 47 42 43 80 180° 9 - - 29.98 0 None
2017-11-22 17:00 48 44 44 84 190° 10 - - 30.01 0 None
2017-11-22 16:00 46 43 42 87 200° 9 - - 30.03 0 None
2017-11-22 15:00 47 43 43 84 180° 9 - - 30.03 0 None
2017-11-22 14:00 46 43 42 88 200° 8 - - 30.05 0 None
2017-11-22 13:00 44 42 40 92 200° 8 - - 30.06 0 1-hr Precip Total: 0.01"
2017-11-22 12:00 43 41 38 93 190° 8 - - 30.03 0 None
2017-11-22 11:00 42 40 38 92 190° 7 - - 30.02 0 None
2017-11-22 10:00 43 41 38 90 200° 10 - - 30.03 0 None
2017-11-22 09:00 43 40 37 91 200° 12 - - 30.03 0 None
2017-11-22 08:00 43 40 34 90 200° 12 18 - 30.01 0 None

Support USWX by starting your Amazon purchase here.